Historique des mesures à Cassis (13260), France
Quotidien Résumé Fevrier 13, 2017 Unités:  US    Métrique   Métrique/US
« Précédent (Jour)
Suivant (Jour) »
Quotidien Hebdomadaire Mensuel Annuel Période au choix
  Maximum: Minimum: Moyenne:
Température: 32 °F 56.8 °F 57.2 °F
Point de rosée: 32 °F 43.3 °F 44.1 °F
Humidité: Humidity % 57 % 58 %
Vitesse du vent: WindSpeedKMH mph 0.0 mph 8.3 mph
Rafales: WindSpeedGustKMH mph - -
Vent:- - ESE
Pression: 0 in 30 in -
Précipitations: 0 in    
Historical Graphs
 
 
Mesures pour : Fevrier 13, 2017
Heure Temperature Point de rosée Pression Vent Vitesse du vent Rafales Humidité Pluie (par heure) Conditions
32 °F 32 °F 0 in Calm     Humidity % 0 in SoftwareType W/m2
00:11 57 °F 44.4 °F 30 in SE 7.2 mph 22.4 mph 63 % 0 in open2300-1.11 W/m2
01:10 57 °F 44.4 °F 30 in SSE 11.1 mph 14.8 mph 63 % 0 in open2300-1.11 W/m2
02:11 56.8 °F 44.2 °F 30.1 in ESE 9.0 mph 11.1 mph 63 % 0 in open2300-1.11 W/m2
03:10 57 °F 44.4 °F 30 in NE 10.1 mph 15.8 mph 63 % 0 in open2300-1.11 W/m2
04:11 57 °F 44.4 °F 30 in SSE 4.7 mph 13.7 mph 63 % 0 in open2300-1.11 W/m2
05:10 56.8 °F 44.8 °F 30 in East 9.0 mph 9.0 mph 64 % 0 in open2300-1.11 W/m2
06:11 56.8 °F 44.8 °F 30 in ENE 3.5 mph 22.7 mph 64 % 0 in open2300-1.11 W/m2
07:10 56.8 °F 44.2 °F 30 in SE 21.6 mph 24.8 mph 63 % 0 in open2300-1.11 W/m2
08:11 56.8 °F 44.2 °F 30 in SSE 3.2 mph 15.8 mph 63 % 0 in open2300-1.11 W/m2
09:10 57.4 °F 45 °F 30 in ESE 9.3 mph 10.1 mph 63 % 0 in open2300-1.11 W/m2
10:11 58.3 °F 45 °F 30 in ESE 7.2 mph 7.2 mph 61 % 0 in open2300-1.11 W/m2
11:10 59.2 °F 44.8 °F 30 in NE 18.3 mph 20.9 mph 59 % 0 in open2300-1.11 W/m2
12:11 60.3 °F 45.9 °F 30 in ESE 10.1 mph 11.9 mph 59 % 0 in open2300-1.11 W/m2
13:10 60.4 °F 46 °F 30 in SSE 3.5 mph 14.3 mph 59 % 0 in open2300-1.11 W/m2
14:11 60.6 °F 45.3 °F 30 in ESE 20.1 mph 21.9 mph 57 % 0 in open2300-1.11 W/m2
15:10 61 °F 45.7 °F 30 in SE 8.7 mph 13.4 mph 57 % 0 in open2300-1.11 W/m2
16:11 59.9 °F 45.1 °F 30 in East 8.7 mph 18.7 mph 58 % 0 in open2300-1.11 W/m2
17:10 58.8 °F 44.1 °F 30 in Calm   12.6 mph 58 % 0 in open2300-1.11 W/m2
18:11 58.5 °F 43.7 °F 30 in SSE 10.5 mph 14.3 mph 58 % 0 in open2300-1.11 W/m2
19:10 58.1 °F 43.3 °F 30 in NE 6.1 mph 10.5 mph 58 % 0 in open2300-1.11 W/m2
20:11 58.1 °F 43.3 °F 30 in ESE 13.4 mph 22.7 mph 58 % 0 in open2300-1.11 W/m2
21:10 58.1 °F 43.3 °F 30 in SSE 6.4 mph 12.6 mph 58 % 0 in open2300-1.11 W/m2
22:11 58.1 °F 43.3 °F 30.1 in Calm   9.3 mph 58 % 0 in open2300-1.11 W/m2
23:10 58.3 °F 43.5 °F 30.1 in SE 6.4 mph 10.1 mph 58 % 0 in open2300-1.11 W/m2
Observations météo à CASSIS
WU-History script by Weather Underground - 1 mb